Averill Park, New York
Current Conditions -  °F | °C
As of 9:51 PM on Wednesday 22 Oct 2014 (Local Time) from KALB Reporting Station
Overcast Overcast  
Wind Chill: 51°   Ceiling: 3700
Heat Index: 51°   Visibility: 10mi
Dew Point: 44°   Wind: 14mph
Humidity: 77%   Direction: 360°N
Pressure: 29.96"   Gusts: 24mph
Location:  42.64°N, 73.55°W
Report Text: KALB 230151Z 36012G21KT 10SM FEW022 OVC037 11/07 A2996 RMK AO2 RAE20B43E49 SLP146 P0003 T01060067
Loading
Personal Weather Stations






























Interactive Weather Map New forecast layout! Learn more

10-Day Weather Forecast

Advertisements
Track Severe Weather on mobile